Terminal Aerodrome Forecast
Issued by NWS Blacksburg, VA

Current Version | Previous Version | Graphics & Text | Print | Product List | Glossary On
Versions: 1 2 3 4 5 6 7 8 9 10 11 12 13 14 15
000
FTUS41 KRNK 181738
TAFBLF
TAF
KBLF 181738Z 1818/1918 VRB03KT P6SM BKN250
     FM190600 16010KT 5SM -RA BR OVC025
     FM190800 16007G15KT 3SM -RA BR OVC008
     FM191300 17007KT P6SM OVC004
     FM191600 18007KT P6SM BKN035=

USA.gov is the U.S. government's official web portal to all federal, state and local government web resources and services.